sensor_id;sensor_type;location;lat;lon;timestamp;temperature;humidity
28177;DHT22;15461;41.652;9.378;2023-10-09T00:00:16;16.50;99.90
28177;DHT22;15461;41.652;9.378;2023-10-09T00:03:01;16.50;99.90
28177;DHT22;15461;41.652;9.378;2023-10-09T00:05:30;16.50;99.90
28177;DHT22;15461;41.652;9.378;2023-10-09T00:08:24;16.50;99.90
28177;DHT22;15461;41.652;9.378;2023-10-09T00:11:01;16.40;99.90
28177;DHT22;15461;41.652;9.378;2023-10-09T00:13:40;16.40;99.90
28177;DHT22;15461;41.652;9.378;2023-10-09T00:16:24;16.40;99.90
28177;DHT22;15461;41.652;9.378;2023-10-09T00:19:01;16.40;99.90
28177;DHT22;15461;41.652;9.378;2023-10-09T00:21:43;16.40;99.90
28177;DHT22;15461;41.652;9.378;2023-10-09T00:24:09;16.40;99.90
28177;DHT22;15461;41.652;9.378;2023-10-09T00:26:45;16.40;99.90
28177;DHT22;15461;41.652;9.378;2023-10-09T00:29:12;16.40;99.90
28177;DHT22;15461;41.652;9.378;2023-10-09T00:31:43;16.30;99.90
28177;DHT22;15461;41.652;9.378;2023-10-09T00:34:32;16.30;99.90
28177;DHT22;15461;41.652;9.378;2023-10-09T00:37:11;16.30;99.90
28177;DHT22;15461;41.652;9.378;2023-10-09T00:40:03;16.20;99.90
28177;DHT22;15461;41.652;9.378;2023-10-09T00:42:45;16.20;99.90
28177;DHT22;15461;41.652;9.378;2023-10-09T00:45:12;16.20;99.90
28177;DHT22;15461;41.652;9.378;2023-10-09T00:47:50;16.20;99.90
28177;DHT22;15461;41.652;9.378;2023-10-09T00:50:17;16.20;99.90
28177;DHT22;15461;41.652;9.378;2023-10-09T00:52:54;16.10;99.90
28177;DHT22;15461;41.652;9.378;2023-10-09T00:55:27;16.10;99.90
28177;DHT22;15461;41.652;9.378;2023-10-09T00:58:04;16.10;99.90
28177;DHT22;15461;41.652;9.378;2023-10-09T01:00:39;16.10;99.90
28177;DHT22;15461;41.652;9.378;2023-10-09T01:03:13;16.10;99.90
28177;DHT22;15461;41.652;9.378;2023-10-09T01:05:53;16.00;99.90
28177;DHT22;15461;41.652;9.378;2023-10-09T01:08:22;16.00;99.90
28177;DHT22;15461;41.652;9.378;2023-10-09T01:10:57;16.00;99.90
28177;DHT22;15461;41.652;9.378;2023-10-09T01:13:34;16.00;99.90
28177;DHT22;15461;41.652;9.378;2023-10-09T01:16:12;16.00;99.90
28177;DHT22;15461;41.652;9.378;2023-10-09T01:18:53;16.00;99.90
28177;DHT22;15461;41.652;9.378;2023-10-09T01:21:21;16.00;99.90
28177;DHT22;15461;41.652;9.378;2023-10-09T01:23:54;16.00;99.90
28177;DHT22;15461;41.652;9.378;2023-10-09T01:29:05;16.00;99.90
28177;DHT22;15461;41.652;9.378;2023-10-09T01:31:36;16.00;99.90
28177;DHT22;15461;41.652;9.378;2023-10-09T01:34:10;16.00;99.90
28177;DHT22;15461;41.652;9.378;2023-10-09T01:36:41;15.90;99.90
28177;DHT22;15461;41.652;9.378;2023-10-09T01:39:07;15.90;99.90
28177;DHT22;15461;41.652;9.378;2023-10-09T01:41:50;15.90;99.90
28177;DHT22;15461;41.652;9.378;2023-10-09T01:44:24;15.90;99.90
28177;DHT22;15461;41.652;9.378;2023-10-09T01:46:52;15.90;99.90
28177;DHT22;15461;41.652;9.378;2023-10-09T01:49:21;15.80;99.90
28177;DHT22;15461;41.652;9.378;2023-10-09T01:51:56;15.80;99.90
28177;DHT22;15461;41.652;9.378;2023-10-09T01:54:26;15.80;99.90
28177;DHT22;15461;41.652;9.378;2023-10-09T01:57:07;15.80;99.90
28177;DHT22;15461;41.652;9.378;2023-10-09T01:59:40;15.80;99.90
28177;DHT22;15461;41.652;9.378;2023-10-09T02:02:37;15.80;99.90
28177;DHT22;15461;41.652;9.378;2023-10-09T02:05:05;15.80;99.90
28177;DHT22;15461;41.652;9.378;2023-10-09T02:07:37;15.70;99.90
28177;DHT22;15461;41.652;9.378;2023-10-09T02:10:19;15.70;99.90
28177;DHT22;15461;41.652;9.378;2023-10-09T02:12:52;15.70;99.90
28177;DHT22;15461;41.652;9.378;2023-10-09T02:15:28;15.70;99.90
28177;DHT22;15461;41.652;9.378;2023-10-09T02:18:06;15.60;99.90
28177;DHT22;15461;41.652;9.378;2023-10-09T02:23:31;15.60;99.90
28177;DHT22;15461;41.652;9.378;2023-10-09T02:26:11;15.60;99.90
28177;DHT22;15461;41.652;9.378;2023-10-09T02:28:57;15.60;99.90
28177;DHT22;15461;41.652;9.378;2023-10-09T02:31:30;15.50;99.90
28177;DHT22;15461;41.652;9.378;2023-10-09T02:34:16;15.50;99.90
28177;DHT22;15461;41.652;9.378;2023-10-09T02:36:42;15.50;99.90
28177;DHT22;15461;41.652;9.378;2023-10-09T02:39:15;15.50;99.90
28177;DHT22;15461;41.652;9.378;2023-10-09T02:42:00;15.50;99.90
28177;DHT22;15461;41.652;9.378;2023-10-09T02:44:31;15.50;99.90
28177;DHT22;15461;41.652;9.378;2023-10-09T02:47:04;15.50;99.90
28177;DHT22;15461;41.652;9.378;2023-10-09T02:49:38;15.50;99.90
28177;DHT22;15461;41.652;9.378;2023-10-09T02:52:05;15.40;99.90
28177;DHT22;15461;41.652;9.378;2023-10-09T02:54:33;15.40;99.90
28177;DHT22;15461;41.652;9.378;2023-10-09T02:57:07;15.50;99.90
28177;DHT22;15461;41.652;9.378;2023-10-09T02:59:34;15.40;99.90
28177;DHT22;15461;41.652;9.378;2023-10-09T03:02:02;15.40;99.90
28177;DHT22;15461;41.652;9.378;2023-10-09T03:04:28;15.40;99.90
28177;DHT22;15461;41.652;9.378;2023-10-09T03:06:58;15.40;99.90
28177;DHT22;15461;41.652;9.378;2023-10-09T03:09:24;15.40;99.90
28177;DHT22;15461;41.652;9.378;2023-10-09T03:11:58;15.40;99.90
28177;DHT22;15461;41.652;9.378;2023-10-09T03:14:30;15.40;99.90
28177;DHT22;15461;41.652;9.378;2023-10-09T03:16:57;15.40;99.90
28177;DHT22;15461;41.652;9.378;2023-10-09T03:19:30;15.30;99.90
28177;DHT22;15461;41.652;9.378;2023-10-09T03:21:56;15.30;99.90
28177;DHT22;15461;41.652;9.378;2023-10-09T03:24:27;15.30;99.90
28177;DHT22;15461;41.652;9.378;2023-10-09T03:26:53;15.30;99.90
28177;DHT22;15461;41.652;9.378;2023-10-09T03:29:22;15.30;99.90
28177;DHT22;15461;41.652;9.378;2023-10-09T03:31:48;15.30;99.90
28177;DHT22;15461;41.652;9.378;2023-10-09T03:34:16;15.30;99.90
28177;DHT22;15461;41.652;9.378;2023-10-09T03:36:45;15.30;99.90
28177;DHT22;15461;41.652;9.378;2023-10-09T03:39:10;15.30;99.90
28177;DHT22;15461;41.652;9.378;2023-10-09T03:41:59;15.30;99.90
28177;DHT22;15461;41.652;9.378;2023-10-09T03:44:25;15.20;99.90
28177;DHT22;15461;41.652;9.378;2023-10-09T03:46:55;15.20;99.90
28177;DHT22;15461;41.652;9.378;2023-10-09T03:49:20;15.20;99.90
28177;DHT22;15461;41.652;9.378;2023-10-09T03:51:52;15.20;99.90
28177;DHT22;15461;41.652;9.378;2023-10-09T03:54:19;15.20;99.90
28177;DHT22;15461;41.652;9.378;2023-10-09T03:56:49;15.20;99.90
28177;DHT22;15461;41.652;9.378;2023-10-09T03:59:18;15.20;99.90
28177;DHT22;15461;41.652;9.378;2023-10-09T04:01:48;15.20;99.90
28177;DHT22;15461;41.652;9.378;2023-10-09T04:04:16;15.20;99.90
28177;DHT22;15461;41.652;9.378;2023-10-09T04:06:42;15.20;99.90
28177;DHT22;15461;41.652;9.378;2023-10-09T04:09:10;15.20;99.90
28177;DHT22;15461;41.652;9.378;2023-10-09T04:11:52;15.20;99.90
28177;DHT22;15461;41.652;9.378;2023-10-09T04:14:38;15.20;99.90
28177;DHT22;15461;41.652;9.378;2023-10-09T04:17:20;15.20;99.90
28177;DHT22;15461;41.652;9.378;2023-10-09T04:19:59;15.10;99.90
28177;DHT22;15461;41.652;9.378;2023-10-09T04:23:00;15.20;99.90
28177;DHT22;15461;41.652;9.378;2023-10-09T04:25:30;15.20;99.90
28177;DHT22;15461;41.652;9.378;2023-10-09T04:28:08;15.20;99.90
28177;DHT22;15461;41.652;9.378;2023-10-09T04:30:48;15.20;99.90
28177;DHT22;15461;41.652;9.378;2023-10-09T04:33:19;15.20;99.90
28177;DHT22;15461;41.652;9.378;2023-10-09T04:36:03;15.20;99.90
28177;DHT22;15461;41.652;9.378;2023-10-09T04:38:48;15.20;99.90
28177;DHT22;15461;41.652;9.378;2023-10-09T04:41:29;15.20;99.90
28177;DHT22;15461;41.652;9.378;2023-10-09T04:44:08;15.30;99.90
28177;DHT22;15461;41.652;9.378;2023-10-09T04:46:50;15.30;99.90
28177;DHT22;15461;41.652;9.378;2023-10-09T04:49:36;15.30;99.90
28177;DHT22;15461;41.652;9.378;2023-10-09T04:52:18;15.30;99.90
28177;DHT22;15461;41.652;9.378;2023-10-09T04:55:05;15.30;99.90
28177;DHT22;15461;41.652;9.378;2023-10-09T04:57:38;15.20;99.90
28177;DHT22;15461;41.652;9.378;2023-10-09T05:00:15;15.30;99.90
28177;DHT22;15461;41.652;9.378;2023-10-09T05:02:51;15.20;99.90
28177;DHT22;15461;41.652;9.378;2023-10-09T05:05:25;15.20;99.90
28177;DHT22;15461;41.652;9.378;2023-10-09T05:08:15;15.20;99.90
28177;DHT22;15461;41.652;9.378;2023-10-09T05:10:44;15.20;99.90
28177;DHT22;15461;41.652;9.378;2023-10-09T05:13:35;15.20;99.90
28177;DHT22;15461;41.652;9.378;2023-10-09T05:18:34;15.20;99.90
28177;DHT22;15461;41.652;9.378;2023-10-09T05:21:03;15.20;99.90
28177;DHT22;15461;41.652;9.378;2023-10-09T05:23:38;15.10;99.90
28177;DHT22;15461;41.652;9.378;2023-10-09T05:26:17;15.10;99.90
28177;DHT22;15461;41.652;9.378;2023-10-09T05:29:03;15.10;99.90
28177;DHT22;15461;41.652;9.378;2023-10-09T05:31:48;15.10;99.90
28177;DHT22;15461;41.652;9.378;2023-10-09T05:34:25;15.20;99.90
28177;DHT22;15461;41.652;9.378;2023-10-09T05:37:06;15.10;99.90
28177;DHT22;15461;41.652;9.378;2023-10-09T05:39:49;15.10;99.90
28177;DHT22;15461;41.652;9.378;2023-10-09T05:42:36;15.10;99.90
28177;DHT22;15461;41.652;9.378;2023-10-09T05:45:12;15.10;99.90
28177;DHT22;15461;41.652;9.378;2023-10-09T05:47:51;15.20;99.90
28177;DHT22;15461;41.652;9.378;2023-10-09T05:50:27;15.20;99.90
28177;DHT22;15461;41.652;9.378;2023-10-09T05:52:54;15.20;99.90
28177;DHT22;15461;41.652;9.378;2023-10-09T05:55:24;15.20;99.90
28177;DHT22;15461;41.652;9.378;2023-10-09T05:57:54;15.20;99.90
28177;DHT22;15461;41.652;9.378;2023-10-09T06:00:29;15.30;99.90
28177;DHT22;15461;41.652;9.378;2023-10-09T06:03:13;15.30;99.90
28177;DHT22;15461;41.652;9.378;2023-10-09T06:05:54;15.40;99.90
28177;DHT22;15461;41.652;9.378;2023-10-09T06:08:24;15.40;99.90
28177;DHT22;15461;41.652;9.378;2023-10-09T06:10:56;15.50;99.90
28177;DHT22;15461;41.652;9.378;2023-10-09T06:13:32;15.50;99.90
28177;DHT22;15461;41.652;9.378;2023-10-09T06:16:05;15.60;99.90
28177;DHT22;15461;41.652;9.378;2023-10-09T06:18:51;15.70;99.90
28177;DHT22;15461;41.652;9.378;2023-10-09T06:21:36;15.80;99.90
28177;DHT22;15461;41.652;9.378;2023-10-09T06:24:25;15.80;99.90
28177;DHT22;15461;41.652;9.378;2023-10-09T06:27:08;16.00;99.90
28177;DHT22;15461;41.652;9.378;2023-10-09T06:29:41;16.10;99.90
28177;DHT22;15461;41.652;9.378;2023-10-09T06:32:11;16.10;99.90
28177;DHT22;15461;41.652;9.378;2023-10-09T06:34:51;16.30;99.90
28177;DHT22;15461;41.652;9.378;2023-10-09T06:37:23;16.40;99.90
28177;DHT22;15461;41.652;9.378;2023-10-09T06:39:50;16.50;99.90
28177;DHT22;15461;41.652;9.378;2023-10-09T06:42:16;16.70;99.90
28177;DHT22;15461;41.652;9.378;2023-10-09T06:45:03;16.80;99.90
28177;DHT22;15461;41.652;9.378;2023-10-09T06:50:19;17.20;99.90
28177;DHT22;15461;41.652;9.378;2023-10-09T06:52:54;17.40;99.90
28177;DHT22;15461;41.652;9.378;2023-10-09T06:55:26;17.60;99.90
28177;DHT22;15461;41.652;9.378;2023-10-09T06:58:02;17.80;99.90
28177;DHT22;15461;41.652;9.378;2023-10-09T07:00:41;18.10;99.90
28177;DHT22;15461;41.652;9.378;2023-10-09T07:03:29;18.40;99.90
28177;DHT22;15461;41.652;9.378;2023-10-09T07:06:09;18.60;99.90
28177;DHT22;15461;41.652;9.378;2023-10-09T07:08:53;18.90;99.90
28177;DHT22;15461;41.652;9.378;2023-10-09T07:11:37;19.30;99.90
28177;DHT22;15461;41.652;9.378;2023-10-09T07:14:09;19.60;99.90
28177;DHT22;15461;41.652;9.378;2023-10-09T07:17:01;19.80;99.90
28177;DHT22;15461;41.652;9.378;2023-10-09T07:19:28;20.10;99.90
28177;DHT22;15461;41.652;9.378;2023-10-09T07:22:03;20.30;99.90
28177;DHT22;15461;41.652;9.378;2023-10-09T07:24:30;20.50;99.90
28177;DHT22;15461;41.652;9.378;2023-10-09T07:27:14;20.80;99.90
28177;DHT22;15461;41.652;9.378;2023-10-09T07:29:41;21.00;99.90
28177;DHT22;15461;41.652;9.378;2023-10-09T07:32:16;21.20;99.90
28177;DHT22;15461;41.652;9.378;2023-10-09T07:34:51;21.40;99.90
28177;DHT22;15461;41.652;9.378;2023-10-09T07:37:23;21.60;99.90
28177;DHT22;15461;41.652;9.378;2023-10-09T07:39:52;21.70;99.90
28177;DHT22;15461;41.652;9.378;2023-10-09T07:42:26;21.90;99.90
28177;DHT22;15461;41.652;9.378;2023-10-09T07:45:00;22.00;99.90
28177;DHT22;15461;41.652;9.378;2023-10-09T07:47:37;22.10;99.90
28177;DHT22;15461;41.652;9.378;2023-10-09T07:50:35;22.40;99.90
28177;DHT22;15461;41.652;9.378;2023-10-09T07:53:10;22.60;99.90
28177;DHT22;15461;41.652;9.378;2023-10-09T07:55:55;22.70;99.90
28177;DHT22;15461;41.652;9.378;2023-10-09T07:58:23;22.80;99.90
28177;DHT22;15461;41.652;9.378;2023-10-09T08:00:56;22.80;99.90
28177;DHT22;15461;41.652;9.378;2023-10-09T08:03:41;22.80;99.90
28177;DHT22;15461;41.652;9.378;2023-10-09T08:06:14;23.00;99.90
28177;DHT22;15461;41.652;9.378;2023-10-09T08:08:58;23.10;99.90
28177;DHT22;15461;41.652;9.378;2023-10-09T08:11:27;23.20;99.90
28177;DHT22;15461;41.652;9.378;2023-10-09T08:14:08;23.30;99.90
28177;DHT22;15461;41.652;9.378;2023-10-09T08:16:53;23.50;99.90
28177;DHT22;15461;41.652;9.378;2023-10-09T08:19:37;23.60;99.90
28177;DHT22;15461;41.652;9.378;2023-10-09T08:22:25;23.60;99.90
28177;DHT22;15461;41.652;9.378;2023-10-09T08:24:51;23.80;99.90
28177;DHT22;15461;41.652;9.378;2023-10-09T08:27:27;23.80;99.90
28177;DHT22;15461;41.652;9.378;2023-10-09T08:30:04;23.90;99.90
28177;DHT22;15461;41.652;9.378;2023-10-09T08:32:39;24.00;99.90
28177;DHT22;15461;41.652;9.378;2023-10-09T08:35:06;24.10;99.90
28177;DHT22;15461;41.652;9.378;2023-10-09T08:37:52;24.20;99.90
28177;DHT22;15461;41.652;9.378;2023-10-09T08:40:27;24.30;99.90
28177;DHT22;15461;41.652;9.378;2023-10-09T08:42:53;24.40;99.90
28177;DHT22;15461;41.652;9.378;2023-10-09T08:45:22;24.40;99.90
28177;DHT22;15461;41.652;9.378;2023-10-09T08:47:56;24.40;99.90
28177;DHT22;15461;41.652;9.378;2023-10-09T08:50:23;24.60;99.90
28177;DHT22;15461;41.652;9.378;2023-10-09T08:52:54;24.60;99.90
28177;DHT22;15461;41.652;9.378;2023-10-09T08:55:20;24.60;99.90
28177;DHT22;15461;41.652;9.378;2023-10-09T08:57:46;24.70;99.90
28177;DHT22;15461;41.652;9.378;2023-10-09T09:00:19;24.80;99.90
28177;DHT22;15461;41.652;9.378;2023-10-09T09:02:50;24.80;99.90
28177;DHT22;15461;41.652;9.378;2023-10-09T09:05:19;24.80;99.90
28177;DHT22;15461;41.652;9.378;2023-10-09T09:07:54;24.80;99.90
28177;DHT22;15461;41.652;9.378;2023-10-09T09:10:31;24.80;99.90
28177;DHT22;15461;41.652;9.378;2023-10-09T09:13:15;25.00;99.90
28177;DHT22;15461;41.652;9.378;2023-10-09T09:15:47;24.90;99.90
28177;DHT22;15461;41.652;9.378;2023-10-09T09:18:12;25.00;99.90
28177;DHT22;15461;41.652;9.378;2023-10-09T09:20:43;24.90;99.90
28177;DHT22;15461;41.652;9.378;2023-10-09T09:23:12;25.00;99.90
28177;DHT22;15461;41.652;9.378;2023-10-09T09:25:42;24.90;99.90
28177;DHT22;15461;41.652;9.378;2023-10-09T09:28:14;24.90;99.90
28177;DHT22;15461;41.652;9.378;2023-10-09T09:30:45;25.00;99.90
28177;DHT22;15461;41.652;9.378;2023-10-09T09:33:24;25.00;99.90
28177;DHT22;15461;41.652;9.378;2023-10-09T09:36:06;24.90;99.90
28177;DHT22;15461;41.652;9.378;2023-10-09T09:38:34;24.90;99.90
28177;DHT22;15461;41.652;9.378;2023-10-09T09:41:19;24.80;99.90
28177;DHT22;15461;41.652;9.378;2023-10-09T09:43:55;24.80;99.90
28177;DHT22;15461;41.652;9.378;2023-10-09T09:46:32;24.80;99.90
28177;DHT22;15461;41.652;9.378;2023-10-09T09:49:06;24.80;99.90
28177;DHT22;15461;41.652;9.378;2023-10-09T09:51:45;24.60;99.90
28177;DHT22;15461;41.652;9.378;2023-10-09T09:54:13;24.60;99.90
28177;DHT22;15461;41.652;9.378;2023-10-09T09:56:44;24.60;99.90
28177;DHT22;15461;41.652;9.378;2023-10-09T09:59:17;24.60;99.90
28177;DHT22;15461;41.652;9.378;2023-10-09T10:01:49;24.60;99.90
28177;DHT22;15461;41.652;9.378;2023-10-09T10:04:33;24.60;99.90
28177;DHT22;15461;41.652;9.378;2023-10-09T10:07:01;24.70;99.90
28177;DHT22;15461;41.652;9.378;2023-10-09T10:09:42;24.70;99.90
28177;DHT22;15461;41.652;9.378;2023-10-09T10:12:12;24.80;99.90
28177;DHT22;15461;41.652;9.378;2023-10-09T10:14:59;24.70;99.90
28177;DHT22;15461;41.652;9.378;2023-10-09T10:17:31;24.80;99.90
28177;DHT22;15461;41.652;9.378;2023-10-09T10:22:29;24.80;99.90
28177;DHT22;15461;41.652;9.378;2023-10-09T10:24:58;24.80;99.90
28177;DHT22;15461;41.652;9.378;2023-10-09T10:27:28;24.90;99.90
28177;DHT22;15461;41.652;9.378;2023-10-09T10:30:28;24.90;99.90
28177;DHT22;15461;41.652;9.378;2023-10-09T10:33:00;25.00;99.90
28177;DHT22;15461;41.652;9.378;2023-10-09T10:35:35;25.00;99.90
28177;DHT22;15461;41.652;9.378;2023-10-09T10:38:30;25.00;99.90
28177;DHT22;15461;41.652;9.378;2023-10-09T10:41:19;25.00;99.90
28177;DHT22;15461;41.652;9.378;2023-10-09T10:43:48;25.10;99.90
28177;DHT22;15461;41.652;9.378;2023-10-09T10:46:22;25.10;99.90
28177;DHT22;15461;41.652;9.378;2023-10-09T10:49:07;25.00;99.90
28177;DHT22;15461;41.652;9.378;2023-10-09T10:51:51;24.90;99.90
28177;DHT22;15461;41.652;9.378;2023-10-09T10:54:27;24.90;99.90
28177;DHT22;15461;41.652;9.378;2023-10-09T10:57:02;24.90;99.90
28177;DHT22;15461;41.652;9.378;2023-10-09T10:59:39;24.90;99.90
28177;DHT22;15461;41.652;9.378;2023-10-09T11:02:10;25.00;99.90
28177;DHT22;15461;41.652;9.378;2023-10-09T11:04:36;25.00;99.90
28177;DHT22;15461;41.652;9.378;2023-10-09T11:07:08;25.10;99.90
28177;DHT22;15461;41.652;9.378;2023-10-09T11:09:58;25.10;99.90
28177;DHT22;15461;41.652;9.378;2023-10-09T11:15:09;25.10;99.90
28177;DHT22;15461;41.652;9.378;2023-10-09T11:18:02;25.10;99.90
28177;DHT22;15461;41.652;9.378;2023-10-09T11:20:43;25.20;99.90
28177;DHT22;15461;41.652;9.378;2023-10-09T11:23:23;25.20;99.90
28177;DHT22;15461;41.652;9.378;2023-10-09T11:26:08;25.20;99.90
28177;DHT22;15461;41.652;9.378;2023-10-09T11:29:10;25.20;99.90
28177;DHT22;15461;41.652;9.378;2023-10-09T11:32:04;25.20;99.90
28177;DHT22;15461;41.652;9.378;2023-10-09T11:34:31;25.00;99.90
28177;DHT22;15461;41.652;9.378;2023-10-09T11:37:19;25.10;99.90
28177;DHT22;15461;41.652;9.378;2023-10-09T11:39:54;25.10;99.90
28177;DHT22;15461;41.652;9.378;2023-10-09T11:42:20;25.20;99.90
28177;DHT22;15461;41.652;9.378;2023-10-09T11:45:19;25.20;99.90
28177;DHT22;15461;41.652;9.378;2023-10-09T11:47:49;25.20;99.90
28177;DHT22;15461;41.652;9.378;2023-10-09T11:50:46;25.10;99.90
28177;DHT22;15461;41.652;9.378;2023-10-09T11:53:28;25.10;99.90
28177;DHT22;15461;41.652;9.378;2023-10-09T11:55:53;25.10;99.90
28177;DHT22;15461;41.652;9.378;2023-10-09T11:58:20;25.20;99.90
28177;DHT22;15461;41.652;9.378;2023-10-09T12:00:56;25.30;99.90
28177;DHT22;15461;41.652;9.378;2023-10-09T12:03:28;25.20;99.90
28177;DHT22;15461;41.652;9.378;2023-10-09T12:06:02;25.10;99.90
28177;DHT22;15461;41.652;9.378;2023-10-09T12:08:32;24.80;99.90
28177;DHT22;15461;41.652;9.378;2023-10-09T12:10:58;24.80;99.90
28177;DHT22;15461;41.652;9.378;2023-10-09T12:13:24;24.70;99.90
28177;DHT22;15461;41.652;9.378;2023-10-09T12:15:52;24.60;99.90
28177;DHT22;15461;41.652;9.378;2023-10-09T12:18:20;24.60;99.90
28177;DHT22;15461;41.652;9.378;2023-10-09T12:20:46;24.60;99.90
28177;DHT22;15461;41.652;9.378;2023-10-09T12:23:28;24.70;99.90
28177;DHT22;15461;41.652;9.378;2023-10-09T12:25:54;24.60;99.90
28177;DHT22;15461;41.652;9.378;2023-10-09T12:28:23;24.50;99.90
28177;DHT22;15461;41.652;9.378;2023-10-09T12:30:49;24.40;99.90
28177;DHT22;15461;41.652;9.378;2023-10-09T12:33:19;24.40;99.90
28177;DHT22;15461;41.652;9.378;2023-10-09T12:35:45;24.40;99.90
28177;DHT22;15461;41.652;9.378;2023-10-09T12:38:12;24.40;99.90
28177;DHT22;15461;41.652;9.378;2023-10-09T12:40:39;24.60;99.90
28177;DHT22;15461;41.652;9.378;2023-10-09T12:43:07;24.70;99.90
28177;DHT22;15461;41.652;9.378;2023-10-09T12:45:42;24.80;99.90
28177;DHT22;15461;41.652;9.378;2023-10-09T12:48:08;25.00;99.90
28177;DHT22;15461;41.652;9.378;2023-10-09T12:50:38;25.20;99.90
28177;DHT22;15461;41.652;9.378;2023-10-09T12:53:08;25.40;99.90
28177;DHT22;15461;41.652;9.378;2023-10-09T12:55:37;25.50;99.90
28177;DHT22;15461;41.652;9.378;2023-10-09T12:58:07;25.60;99.90
28177;DHT22;15461;41.652;9.378;2023-10-09T13:00:37;25.70;99.90
28177;DHT22;15461;41.652;9.378;2023-10-09T13:03:09;25.80;99.90
28177;DHT22;15461;41.652;9.378;2023-10-09T13:05:48;25.80;99.90
28177;DHT22;15461;41.652;9.378;2023-10-09T13:08:25;25.90;99.90
28177;DHT22;15461;41.652;9.378;2023-10-09T13:11:10;26.00;99.90
28177;DHT22;15461;41.652;9.378;2023-10-09T13:13:40;26.00;99.90
28177;DHT22;15461;41.652;9.378;2023-10-09T13:16:11;26.10;99.90
28177;DHT22;15461;41.652;9.378;2023-10-09T13:18:41;26.10;99.90
28177;DHT22;15461;41.652;9.378;2023-10-09T13:21:25;26.00;99.90
28177;DHT22;15461;41.652;9.378;2023-10-09T13:23:52;26.10;99.90
28177;DHT22;15461;41.652;9.378;2023-10-09T13:26:21;26.10;99.90
28177;DHT22;15461;41.652;9.378;2023-10-09T13:28:54;26.20;99.90
28177;DHT22;15461;41.652;9.378;2023-10-09T13:31:21;26.20;99.90
28177;DHT22;15461;41.652;9.378;2023-10-09T13:33:51;26.40;99.90
28177;DHT22;15461;41.652;9.378;2023-10-09T13:36:24;26.40;99.90
28177;DHT22;15461;41.652;9.378;2023-10-09T13:39:26;26.50;99.90
28177;DHT22;15461;41.652;9.378;2023-10-09T13:41:46;26.50;99.90
28177;DHT22;15461;41.652;9.378;2023-10-09T13:44:11;26.30;99.90
28177;DHT22;15461;41.652;9.378;2023-10-09T13:46:37;26.10;99.90
28177;DHT22;15461;41.652;9.378;2023-10-09T13:49:10;25.80;99.90
28177;DHT22;15461;41.652;9.378;2023-10-09T13:51:43;25.50;99.90
28177;DHT22;15461;41.652;9.378;2023-10-09T13:54:12;25.30;99.90
28177;DHT22;15461;41.652;9.378;2023-10-09T13:56:54;25.40;99.90
28177;DHT22;15461;41.652;9.378;2023-10-09T13:59:23;25.50;99.90
28177;DHT22;15461;41.652;9.378;2023-10-09T14:01:54;25.50;99.90
28177;DHT22;15461;41.652;9.378;2023-10-09T14:04:21;25.60;99.90
28177;DHT22;15461;41.652;9.378;2023-10-09T14:06:49;25.70;99.90
28177;DHT22;15461;41.652;9.378;2023-10-09T14:09:23;25.60;99.90
28177;DHT22;15461;41.652;9.378;2023-10-09T14:12:04;25.70;99.90
28177;DHT22;15461;41.652;9.378;2023-10-09T14:14:42;25.60;99.90
28177;DHT22;15461;41.652;9.378;2023-10-09T14:17:18;25.60;99.90
28177;DHT22;15461;41.652;9.378;2023-10-09T14:19:55;25.70;99.90
28177;DHT22;15461;41.652;9.378;2023-10-09T14:22:26;25.70;99.90
28177;DHT22;15461;41.652;9.378;2023-10-09T14:24:53;25.60;99.90
28177;DHT22;15461;41.652;9.378;2023-10-09T14:27:23;25.60;99.90
28177;DHT22;15461;41.652;9.378;2023-10-09T14:29:53;25.50;99.90
28177;DHT22;15461;41.652;9.378;2023-10-09T14:32:25;25.50;99.90
28177;DHT22;15461;41.652;9.378;2023-10-09T14:34:55;25.40;99.90
28177;DHT22;15461;41.652;9.378;2023-10-09T14:37:29;25.30;99.90
28177;DHT22;15461;41.652;9.378;2023-10-09T14:39:57;25.20;99.90
28177;DHT22;15461;41.652;9.378;2023-10-09T14:42:24;25.20;99.90
28177;DHT22;15461;41.652;9.378;2023-10-09T14:44:53;25.20;99.90
28177;DHT22;15461;41.652;9.378;2023-10-09T14:47:21;25.20;99.90
28177;DHT22;15461;41.652;9.378;2023-10-09T14:49:47;25.20;99.90
28177;DHT22;15461;41.652;9.378;2023-10-09T14:52:14;25.40;99.90
28177;DHT22;15461;41.652;9.378;2023-10-09T14:54:44;25.50;99.90
28177;DHT22;15461;41.652;9.378;2023-10-09T14:57:11;25.60;99.90
28177;DHT22;15461;41.652;9.378;2023-10-09T14:59:38;25.70;99.90
28177;DHT22;15461;41.652;9.378;2023-10-09T15:02:04;25.60;99.90
28177;DHT22;15461;41.652;9.378;2023-10-09T15:04:33;25.50;99.90
28177;DHT22;15461;41.652;9.378;2023-10-09T15:07:02;25.30;99.90
28177;DHT22;15461;41.652;9.378;2023-10-09T15:09:33;25.20;99.90
28177;DHT22;15461;41.652;9.378;2023-10-09T15:12:00;25.10;99.90
28177;DHT22;15461;41.652;9.378;2023-10-09T15:14:26;24.90;99.90
28177;DHT22;15461;41.652;9.378;2023-10-09T15:16:52;24.90;99.90
28177;DHT22;15461;41.652;9.378;2023-10-09T15:19:18;24.90;99.90
28177;DHT22;15461;41.652;9.378;2023-10-09T15:21:44;24.90;99.90
28177;DHT22;15461;41.652;9.378;2023-10-09T15:24:11;24.80;99.90
28177;DHT22;15461;41.652;9.378;2023-10-09T15:26:45;24.70;99.90
28177;DHT22;15461;41.652;9.378;2023-10-09T15:29:31;24.70;99.90
28177;DHT22;15461;41.652;9.378;2023-10-09T15:32:01;24.60;99.90
28177;DHT22;15461;41.652;9.378;2023-10-09T15:34:40;24.50;99.90
28177;DHT22;15461;41.652;9.378;2023-10-09T15:37:07;24.50;99.90
28177;DHT22;15461;41.652;9.378;2023-10-09T15:39:39;24.60;99.90
28177;DHT22;15461;41.652;9.378;2023-10-09T15:42:04;24.60;99.90
28177;DHT22;15461;41.652;9.378;2023-10-09T15:44:32;24.50;99.90
28177;DHT22;15461;41.652;9.378;2023-10-09T15:47:05;24.40;99.90
28177;DHT22;15461;41.652;9.378;2023-10-09T15:49:34;24.30;99.90
28177;DHT22;15461;41.652;9.378;2023-10-09T15:52:03;24.20;99.90
28177;DHT22;15461;41.652;9.378;2023-10-09T15:54:29;24.00;99.90
28177;DHT22;15461;41.652;9.378;2023-10-09T15:56:55;24.00;99.90
28177;DHT22;15461;41.652;9.378;2023-10-09T15:59:22;24.00;99.90
28177;DHT22;15461;41.652;9.378;2023-10-09T16:01:50;23.90;99.90
28177;DHT22;15461;41.652;9.378;2023-10-09T16:04:17;23.80;99.90
28177;DHT22;15461;41.652;9.378;2023-10-09T16:06:43;23.80;99.90
28177;DHT22;15461;41.652;9.378;2023-10-09T16:09:09;23.70;99.90
28177;DHT22;15461;41.652;9.378;2023-10-09T16:11:40;23.70;99.90
28177;DHT22;15461;41.652;9.378;2023-10-09T16:14:07;23.60;99.90
28177;DHT22;15461;41.652;9.378;2023-10-09T16:16:36;23.50;99.90
28177;DHT22;15461;41.652;9.378;2023-10-09T16:19:09;23.40;99.90
28177;DHT22;15461;41.652;9.378;2023-10-09T16:21:35;23.30;99.90
28177;DHT22;15461;41.652;9.378;2023-10-09T16:24:01;23.30;99.90
28177;DHT22;15461;41.652;9.378;2023-10-09T16:26:31;23.20;99.90
28177;DHT22;15461;41.652;9.378;2023-10-09T16:29:09;23.10;99.90